Latest METARs, TAFs and NOTAMs for SKCL


---------------------------------------------------------------------------
	(OBSERVATIONS)
SKCL 271800Z 16003KT 9999 FEW025 SCT300 29/21 A2996=
SKCL 271700Z 29003KT 7000 SCT025 28/21 A2999 RMK HZ=
SKCL 271600Z 33005KT 7000 BKN020 27/21 A3002 RMK HZ=
---------------------------------------------------------------------------
	(TERMINAL AREA FORECAST)
SKCL 271700Z 271818 33008KT 9999 FEW020 SCT250
    TEMPO 2722/2802 8000 VCSH SCT017TCU
    BECMG 2802/2803 04004KT
    TEMPO 2810/2814 6000 VCFG
    TX31/2719Z TN19/2811
    CHECK
    TEXT
    NEW ENDING ADDED KATLYTAA
---------------------------------------------------------------------------
	(NOTAMS)


SKCL A0245/16 INTL APN LTD, RESTRICTED OPS ACFT GEN AVIATION,
    GEN AVIATION WILL BE RELOCATED IN DESCONGESTION APN, CARGO
    APN AND GEN AVIATION. -CREW MUST INFORM TO CECOA WHEN OVERNIGHT
    WILL BE PRETEND AND DEPARTURE DATE TEL. (57) 3155779760 -
    (57-2) 2800111. 01 FEB 00:00 2016 UNTIL 31 MAY 23:59 2016.
    CREATED: 27 JAN 22:24 2016

SKCL A0246/16 TWY A,B,C,C1,C2,D,E,F,G WIP, EXER CTN. H24, 01
    FEB 00:00 2016 UNTIL 31 MAY 23:59 2016. CREATED: 27 JAN 22:39
    2016

SKCL A0247/16 STRIP RWY 01/19 STRIP TWY A,B,C,D,E,F WIP, EXER
    CTN. H24, 01 FEB 00:00 2016 UNTIL 31 MAY 23:59 2016. CREATED:
    27 JAN 22:54 2016

SKCL A0255/16 APRON, CARGO APRON AND DECONGESTION APRON WIP,
    EXER CTN. H24, 01 FEB 23:59 2016 UNTIL 31 MAY 23:59 2016.
    CREATED: 28 JAN 13:32 2016

SKCL A0589/16 HELIPORT CLSD TO ALL NGT OPS NOTA: HEL MUST USE
    RWY AND TWY A. 27 FEB 10:47 2016 UNTIL 31 MAY 23:59 2016.
    CREATED: 27 FEB 10:50 2016

SKCL A1130/16 TWY B RESTRICTED TKOF ACFT CAT E. 12 APR 23:00
    2016 UNTIL 12 JUL 23:59 2016. CREATED: 12 APR 23:02 2016

SKCL A1139/16 ACFT STAND NR 1 INSTL COORD 033209N0762310W AVBL
    ONLY ACFT CAT C OR LOWER ACFT ENTERING AND EXITING MUST BE
    TOWED. 13 APR 18:02 2016 UNTIL 12 JUL 23:59 2016. CREATED:
    13 APR 18:03 2016

SKCL A1159/16 TWY A BTN RWY 01 AND TWY B CLSD. 14 APR 21:03 2016
    UNTIL 19 JUL 23:59 2016. CREATED: 14 APR 21:05 2016

SKCL A1162/16 RWY 01 TURNING BAY LTD, ACFT PROHIBITED PARALLEL
    OR ONE SURPASSES THE OTHER ACFT, EXER CTN. 14 APR 21:15 2016
    UNTIL 19 JUL 23:59 2016. CREATED: 14 APR 21:18 2016

SKCL A1205/16 E)TRIGGER NOTAM - PERM AIRAC AIP SUP A08/16 WEF
    23JUN2016 UPDATE INFO CTA CALI REF. AIP ENR 3.1, ENR 3.2,
    ENR 4.3, ENR CTA CALI. 23 JUN 00:00 2016 UNTIL PERM. CREATED:
    19 APR 06:55 2016

SKCL A1396/16 RCLL RWY 01/19 U/S. 27 MAY 00:00 2016 UNTIL 27
    JAN 23:59 2017. CREATED: 04 MAY 18:24 2016

SKCL A1585/16 RWY 01/19 CLSD. DLY BTN 0600-1015 MAY 21 BTN 0630-1015,
    21 MAY 06:30 2016 UNTIL 21 JUL 10:15 2016. CREATED: 21 MAY
    06:14 2016

SKCL A1620/16 SEQUENCED FLG LGT RWY 01 U/S. 25 MAY 22:10 2016
    UNTIL 25 AUG 23:59 2016 ESTIMATED. CREATED: 25 MAY 22:08
    2016

SKCL A1635/16 LAUNCHING RADIOSONDE RDO 1NM CENTRO 0333N07623W.
    27 MAY 17:08 2016 UNTIL PERM. CREATED: 27 MAY 17:10 2016

SKCL A3216/15 OBST INSTL DUE TO WIP, CRANE PRESENCE HGT 30M,
    RDO 50M NXT COORD: 033206.84076N0762312.59357W- 033210.13714N0762312.10406W.
    H24, 16 MAY 00:00 2016 UNTIL 16 AUG 23:59 2016. CREATED:
    26 NOV 14:16 2015

SKCL A3217/15 OBST INSTL DUE TO WIP, CRANE PRESENCE HGT 30M,
    RDO 50M NXT COORD: 033206.84076N0762312.59357W- 033210.13714N0762312.10406W.
    H24, 17 AUG 00:00 2016 UNTIL 30 NOV 23:59 2016. CREATED:
    26 NOV 14:23 2015

SKCL A3225/15 RWY 01/19 CLSD. DLY BTN 0600-1015, 22 JUL 06:00
    2016 UNTIL 22 OCT 10:15 2016. CREATED: 26 NOV 17:10 2015

SKCL A3226/15 RWY 01/19 CLSD. DLY BTN 0600-1015, 23 OCT 06:00
    2016 UNTIL 28 FEB 10:15 2017. CREATED: 26 NOV 17:19 2015

SKCL V0094/16 [US DOD PROCEDURAL NOTAM] INSTRUMENT APPROACH PROCEDURE
    NOT AUTHORIZED ALL IAPS. 28 APR 00:01 2016 UNTIL 20 JUL 23:59
    2016. CREATED: 27 APR 14:43 2016

SKCL V0095/16 [US DOD PROCEDURAL NOTAM] STANDARD INSTRUMENT DEPARTURE
    (SID) NOT AUTHORIZED ALL SIDS. 28 APR 00:01 2016 UNTIL 20
    JUL 23:59 2016. CREATED: 27 APR 14:44 2016

---------------------------------------------------------------------------